sensor_id;sensor_type;location;lat;lon;timestamp;P1;durP1;ratioP1;P2;durP2;ratioP2
2872;SDS011;1444;49.166;7.312;2023-02-24T00:00:58;52.23;;;24.67;;
2872;SDS011;1444;49.166;7.312;2023-02-24T00:03:32;41.20;;;25.57;;
2872;SDS011;1444;49.166;7.312;2023-02-24T00:06:00;44.40;;;24.97;;
2872;SDS011;1444;49.166;7.312;2023-02-24T00:08:30;44.93;;;24.00;;
2872;SDS011;1444;49.166;7.312;2023-02-24T00:10:57;32.13;;;18.93;;
2872;SDS011;1444;49.166;7.312;2023-02-24T00:13:24;41.63;;;21.97;;
2872;SDS011;1444;49.166;7.312;2023-02-24T00:15:57;40.40;;;23.23;;
2872;SDS011;1444;49.166;7.312;2023-02-24T00:18:25;38.47;;;23.73;;
2872;SDS011;1444;49.166;7.312;2023-02-24T00:20:52;36.00;;;18.90;;
2872;SDS011;1444;49.166;7.312;2023-02-24T00:23:21;38.20;;;23.60;;
2872;SDS011;1444;49.166;7.312;2023-02-24T00:25:50;43.57;;;23.70;;
2872;SDS011;1444;49.166;7.312;2023-02-24T00:28:24;52.80;;;31.37;;
2872;SDS011;1444;49.166;7.312;2023-02-24T00:30:52;48.57;;;27.43;;
2872;SDS011;1444;49.166;7.312;2023-02-24T00:33:19;45.47;;;23.97;;
2872;SDS011;1444;49.166;7.312;2023-02-24T00:35:46;44.43;;;22.30;;
2872;SDS011;1444;49.166;7.312;2023-02-24T00:38:13;45.47;;;24.33;;
2872;SDS011;1444;49.166;7.312;2023-02-24T00:40:40;44.60;;;22.27;;
2872;SDS011;1444;49.166;7.312;2023-02-24T00:43:10;42.00;;;22.17;;
2872;SDS011;1444;49.166;7.312;2023-02-24T00:45:37;47.13;;;23.23;;
2872;SDS011;1444;49.166;7.312;2023-02-24T00:48:04;46.70;;;22.57;;
2872;SDS011;1444;49.166;7.312;2023-02-24T00:50:34;47.87;;;24.47;;
2872;SDS011;1444;49.166;7.312;2023-02-24T00:53:03;41.83;;;21.17;;
2872;SDS011;1444;49.166;7.312;2023-02-24T00:55:30;60.10;;;25.00;;
2872;SDS011;1444;49.166;7.312;2023-02-24T00:58:00;54.30;;;24.03;;
2872;SDS011;1444;49.166;7.312;2023-02-24T01:00:29;52.03;;;25.10;;
2872;SDS011;1444;49.166;7.312;2023-02-24T01:03:00;45.73;;;20.87;;
2872;SDS011;1444;49.166;7.312;2023-02-24T01:05:27;51.53;;;27.50;;
2872;SDS011;1444;49.166;7.312;2023-02-24T01:07:54;54.63;;;25.63;;
2872;SDS011;1444;49.166;7.312;2023-02-24T01:10:22;51.50;;;24.83;;
2872;SDS011;1444;49.166;7.312;2023-02-24T01:12:52;44.80;;;23.13;;
2872;SDS011;1444;49.166;7.312;2023-02-24T01:15:19;45.97;;;23.33;;
2872;SDS011;1444;49.166;7.312;2023-02-24T01:17:48;56.27;;;23.23;;
2872;SDS011;1444;49.166;7.312;2023-02-24T01:20:15;41.57;;;21.37;;
2872;SDS011;1444;49.166;7.312;2023-02-24T01:22:43;47.23;;;21.93;;
2872;SDS011;1444;49.166;7.312;2023-02-24T01:25:11;47.67;;;22.50;;
2872;SDS011;1444;49.166;7.312;2023-02-24T01:27:38;47.37;;;21.20;;
2872;SDS011;1444;49.166;7.312;2023-02-24T01:30:06;55.57;;;20.17;;
2872;SDS011;1444;49.166;7.312;2023-02-24T01:32:37;53.03;;;22.57;;
2872;SDS011;1444;49.166;7.312;2023-02-24T01:35:06;44.90;;;23.87;;
2872;SDS011;1444;49.166;7.312;2023-02-24T01:37:33;59.33;;;25.87;;
2872;SDS011;1444;49.166;7.312;2023-02-24T01:40:00;46.43;;;22.80;;
2872;SDS011;1444;49.166;7.312;2023-02-24T01:42:34;51.13;;;23.53;;
2872;SDS011;1444;49.166;7.312;2023-02-24T01:45:05;48.93;;;22.30;;
2872;SDS011;1444;49.166;7.312;2023-02-24T01:47:41;51.80;;;23.07;;
2872;SDS011;1444;49.166;7.312;2023-02-24T01:50:10;61.03;;;23.00;;
2872;SDS011;1444;49.166;7.312;2023-02-24T01:52:39;50.23;;;22.67;;
2872;SDS011;1444;49.166;7.312;2023-02-24T01:55:10;56.23;;;22.70;;
2872;SDS011;1444;49.166;7.312;2023-02-24T01:57:40;57.10;;;22.90;;
2872;SDS011;1444;49.166;7.312;2023-02-24T02:00:12;69.03;;;24.20;;
2872;SDS011;1444;49.166;7.312;2023-02-24T02:02:56;55.90;;;23.60;;
2872;SDS011;1444;49.166;7.312;2023-02-24T02:05:27;62.07;;;28.10;;
2872;SDS011;1444;49.166;7.312;2023-02-24T02:07:53;95.40;;;34.70;;
2872;SDS011;1444;49.166;7.312;2023-02-24T02:10:21;98.27;;;41.13;;
2872;SDS011;1444;49.166;7.312;2023-02-24T02:12:48;65.33;;;33.23;;
2872;SDS011;1444;49.166;7.312;2023-02-24T02:15:16;55.57;;;26.20;;
2872;SDS011;1444;49.166;7.312;2023-02-24T02:17:47;55.53;;;25.53;;
2872;SDS011;1444;49.166;7.312;2023-02-24T02:23:28;59.13;;;25.50;;
2872;SDS011;1444;49.166;7.312;2023-02-24T02:26:10;57.03;;;25.23;;
2872;SDS011;1444;49.166;7.312;2023-02-24T02:28:57;53.60;;;24.33;;
2872;SDS011;1444;49.166;7.312;2023-02-24T02:31:43;63.47;;;26.90;;
2872;SDS011;1444;49.166;7.312;2023-02-24T02:34:31;51.00;;;25.00;;
2872;SDS011;1444;49.166;7.312;2023-02-24T02:37:07;55.30;;;24.47;;
2872;SDS011;1444;49.166;7.312;2023-02-24T02:39:41;65.27;;;24.63;;
2872;SDS011;1444;49.166;7.312;2023-02-24T02:42:16;57.90;;;26.70;;
2872;SDS011;1444;49.166;7.312;2023-02-24T02:44:52;65.03;;;26.73;;
2872;SDS011;1444;49.166;7.312;2023-02-24T02:47:30;68.97;;;26.70;;
2872;SDS011;1444;49.166;7.312;2023-02-24T02:50:03;56.63;;;22.07;;
2872;SDS011;1444;49.166;7.312;2023-02-24T02:52:39;60.27;;;25.97;;
2872;SDS011;1444;49.166;7.312;2023-02-24T02:55:13;68.13;;;25.83;;
2872;SDS011;1444;49.166;7.312;2023-02-24T02:57:46;75.83;;;32.27;;
2872;SDS011;1444;49.166;7.312;2023-02-24T03:00:17;66.33;;;26.87;;
2872;SDS011;1444;49.166;7.312;2023-02-24T03:02:47;62.27;;;26.90;;
2872;SDS011;1444;49.166;7.312;2023-02-24T03:05:21;59.43;;;24.10;;
2872;SDS011;1444;49.166;7.312;2023-02-24T03:07:56;75.43;;;30.57;;
2872;SDS011;1444;49.166;7.312;2023-02-24T03:10:26;66.53;;;29.57;;
2872;SDS011;1444;49.166;7.312;2023-02-24T03:12:58;67.47;;;31.87;;
2872;SDS011;1444;49.166;7.312;2023-02-24T03:15:29;76.13;;;33.57;;
2872;SDS011;1444;49.166;7.312;2023-02-24T03:18:00;66.00;;;28.07;;
2872;SDS011;1444;49.166;7.312;2023-02-24T03:20:36;70.63;;;30.47;;
2872;SDS011;1444;49.166;7.312;2023-02-24T03:23:08;58.67;;;26.00;;
2872;SDS011;1444;49.166;7.312;2023-02-24T03:25:41;64.53;;;24.40;;
2872;SDS011;1444;49.166;7.312;2023-02-24T03:28:13;58.57;;;22.13;;
2872;SDS011;1444;49.166;7.312;2023-02-24T03:30:45;54.40;;;23.80;;
2872;SDS011;1444;49.166;7.312;2023-02-24T03:33:20;58.27;;;25.80;;
2872;SDS011;1444;49.166;7.312;2023-02-24T03:35:51;64.20;;;27.40;;
2872;SDS011;1444;49.166;7.312;2023-02-24T03:38:18;63.43;;;27.03;;
2872;SDS011;1444;49.166;7.312;2023-02-24T03:40:48;55.90;;;24.03;;
2872;SDS011;1444;49.166;7.312;2023-02-24T03:43:16;60.60;;;26.40;;
2872;SDS011;1444;49.166;7.312;2023-02-24T03:45:46;57.37;;;23.70;;
2872;SDS011;1444;49.166;7.312;2023-02-24T03:48:14;62.43;;;23.37;;
2872;SDS011;1444;49.166;7.312;2023-02-24T03:50:41;55.03;;;23.13;;
2872;SDS011;1444;49.166;7.312;2023-02-24T03:53:18;60.07;;;23.83;;
2872;SDS011;1444;49.166;7.312;2023-02-24T03:55:57;55.37;;;25.33;;
2872;SDS011;1444;49.166;7.312;2023-02-24T03:58:34;63.37;;;26.87;;
2872;SDS011;1444;49.166;7.312;2023-02-24T04:01:12;47.77;;;20.87;;
2872;SDS011;1444;49.166;7.312;2023-02-24T04:03:46;48.03;;;20.20;;
2872;SDS011;1444;49.166;7.312;2023-02-24T04:06:30;54.73;;;26.50;;
2872;SDS011;1444;49.166;7.312;2023-02-24T04:09:04;51.77;;;23.27;;
2872;SDS011;1444;49.166;7.312;2023-02-24T04:11:45;58.10;;;24.10;;
2872;SDS011;1444;49.166;7.312;2023-02-24T04:14:18;57.37;;;24.10;;
2872;SDS011;1444;49.166;7.312;2023-02-24T04:16:52;55.27;;;20.20;;
2872;SDS011;1444;49.166;7.312;2023-02-24T04:19:25;65.47;;;26.70;;
2872;SDS011;1444;49.166;7.312;2023-02-24T04:21:54;50.97;;;21.57;;
2872;SDS011;1444;49.166;7.312;2023-02-24T04:24:24;54.90;;;23.90;;
2872;SDS011;1444;49.166;7.312;2023-02-24T04:26:55;51.13;;;24.00;;
2872;SDS011;1444;49.166;7.312;2023-02-24T04:29:25;68.67;;;26.77;;
2872;SDS011;1444;49.166;7.312;2023-02-24T04:32:00;50.27;;;23.40;;
2872;SDS011;1444;49.166;7.312;2023-02-24T04:34:31;63.70;;;26.57;;
2872;SDS011;1444;49.166;7.312;2023-02-24T04:36:58;67.87;;;22.07;;
2872;SDS011;1444;49.166;7.312;2023-02-24T04:39:28;59.27;;;27.87;;
2872;SDS011;1444;49.166;7.312;2023-02-24T04:41:55;56.80;;;24.77;;
2872;SDS011;1444;49.166;7.312;2023-02-24T04:44:25;65.50;;;25.80;;
2872;SDS011;1444;49.166;7.312;2023-02-24T04:46:53;55.37;;;23.10;;
2872;SDS011;1444;49.166;7.312;2023-02-24T04:49:20;55.27;;;25.70;;
2872;SDS011;1444;49.166;7.312;2023-02-24T04:54:46;58.30;;;24.63;;
2872;SDS011;1444;49.166;7.312;2023-02-24T04:57:13;58.07;;;22.70;;
2872;SDS011;1444;49.166;7.312;2023-02-24T04:59:39;62.83;;;24.67;;
2872;SDS011;1444;49.166;7.312;2023-02-24T05:02:06;42.37;;;21.90;;
2872;SDS011;1444;49.166;7.312;2023-02-24T05:04:34;70.27;;;27.60;;
2872;SDS011;1444;49.166;7.312;2023-02-24T05:07:02;58.80;;;22.60;;
2872;SDS011;1444;49.166;7.312;2023-02-24T05:09:29;60.57;;;25.30;;
2872;SDS011;1444;49.166;7.312;2023-02-24T05:11:57;55.30;;;24.07;;
2872;SDS011;1444;49.166;7.312;2023-02-24T05:14:24;64.80;;;26.70;;
2872;SDS011;1444;49.166;7.312;2023-02-24T05:16:51;58.10;;;23.03;;
2872;SDS011;1444;49.166;7.312;2023-02-24T05:19:23;56.40;;;25.70;;
2872;SDS011;1444;49.166;7.312;2023-02-24T05:22:08;83.43;;;23.83;;
2872;SDS011;1444;49.166;7.312;2023-02-24T05:24:35;67.20;;;27.70;;
2872;SDS011;1444;49.166;7.312;2023-02-24T05:27:04;54.17;;;21.20;;
2872;SDS011;1444;49.166;7.312;2023-02-24T05:29:32;49.27;;;21.93;;
2872;SDS011;1444;49.166;7.312;2023-02-24T05:32:00;65.13;;;24.27;;
2872;SDS011;1444;49.166;7.312;2023-02-24T05:34:29;62.27;;;23.83;;
2872;SDS011;1444;49.166;7.312;2023-02-24T05:36:57;53.80;;;21.30;;
2872;SDS011;1444;49.166;7.312;2023-02-24T05:39:25;58.73;;;27.87;;
2872;SDS011;1444;49.166;7.312;2023-02-24T05:41:53;56.23;;;24.47;;
2872;SDS011;1444;49.166;7.312;2023-02-24T05:44:23;79.50;;;28.67;;
2872;SDS011;1444;49.166;7.312;2023-02-24T05:46:51;51.90;;;23.07;;
2872;SDS011;1444;49.166;7.312;2023-02-24T05:49:22;65.67;;;27.90;;
2872;SDS011;1444;49.166;7.312;2023-02-24T05:51:52;65.30;;;24.47;;
2872;SDS011;1444;49.166;7.312;2023-02-24T05:54:21;66.20;;;26.10;;
2872;SDS011;1444;49.166;7.312;2023-02-24T05:56:52;61.40;;;22.17;;
2872;SDS011;1444;49.166;7.312;2023-02-24T05:59:21;49.23;;;19.97;;
2872;SDS011;1444;49.166;7.312;2023-02-24T06:01:49;55.73;;;22.70;;
2872;SDS011;1444;49.166;7.312;2023-02-24T06:04:17;59.60;;;23.60;;
2872;SDS011;1444;49.166;7.312;2023-02-24T06:07:03;53.33;;;22.93;;
2872;SDS011;1444;49.166;7.312;2023-02-24T06:09:31;65.73;;;24.93;;
2872;SDS011;1444;49.166;7.312;2023-02-24T06:11:58;61.50;;;23.20;;
2872;SDS011;1444;49.166;7.312;2023-02-24T06:14:27;67.40;;;26.50;;
2872;SDS011;1444;49.166;7.312;2023-02-24T06:16:54;63.37;;;24.07;;
2872;SDS011;1444;49.166;7.312;2023-02-24T06:19:21;64.90;;;27.77;;
2872;SDS011;1444;49.166;7.312;2023-02-24T06:21:49;54.10;;;23.80;;
2872;SDS011;1444;49.166;7.312;2023-02-24T06:24:16;62.67;;;24.90;;
2872;SDS011;1444;49.166;7.312;2023-02-24T06:26:43;60.20;;;25.30;;
2872;SDS011;1444;49.166;7.312;2023-02-24T06:29:11;62.17;;;25.90;;
2872;SDS011;1444;49.166;7.312;2023-02-24T06:31:41;60.20;;;25.90;;
2872;SDS011;1444;49.166;7.312;2023-02-24T06:34:08;59.47;;;22.50;;
2872;SDS011;1444;49.166;7.312;2023-02-24T06:36:35;67.20;;;23.33;;
2872;SDS011;1444;49.166;7.312;2023-02-24T06:39:02;55.63;;;24.43;;
2872;SDS011;1444;49.166;7.312;2023-02-24T06:41:32;59.53;;;22.93;;
2872;SDS011;1444;49.166;7.312;2023-02-24T06:43:59;57.17;;;21.53;;
2872;SDS011;1444;49.166;7.312;2023-02-24T06:46:26;59.60;;;27.30;;
2872;SDS011;1444;49.166;7.312;2023-02-24T06:48:55;52.60;;;21.20;;
2872;SDS011;1444;49.166;7.312;2023-02-24T06:51:22;53.27;;;20.27;;
2872;SDS011;1444;49.166;7.312;2023-02-24T06:53:54;51.00;;;20.30;;
2872;SDS011;1444;49.166;7.312;2023-02-24T06:56:21;56.70;;;24.40;;
2872;SDS011;1444;49.166;7.312;2023-02-24T06:58:50;57.30;;;22.37;;
2872;SDS011;1444;49.166;7.312;2023-02-24T07:01:20;67.83;;;27.80;;
2872;SDS011;1444;49.166;7.312;2023-02-24T07:03:49;56.87;;;23.20;;
2872;SDS011;1444;49.166;7.312;2023-02-24T07:06:45;58.40;;;25.17;;
2872;SDS011;1444;49.166;7.312;2023-02-24T07:09:16;62.37;;;23.17;;
2872;SDS011;1444;49.166;7.312;2023-02-24T07:11:45;70.40;;;24.10;;
2872;SDS011;1444;49.166;7.312;2023-02-24T07:14:16;53.07;;;21.93;;
2872;SDS011;1444;49.166;7.312;2023-02-24T07:16:43;61.50;;;23.23;;
2872;SDS011;1444;49.166;7.312;2023-02-24T07:19:11;60.00;;;25.60;;
2872;SDS011;1444;49.166;7.312;2023-02-24T07:21:40;64.57;;;24.40;;
2872;SDS011;1444;49.166;7.312;2023-02-24T07:24:12;60.03;;;24.93;;
2872;SDS011;1444;49.166;7.312;2023-02-24T07:26:52;46.67;;;23.97;;
2872;SDS011;1444;49.166;7.312;2023-02-24T07:29:20;68.20;;;26.07;;
2872;SDS011;1444;49.166;7.312;2023-02-24T07:31:47;64.10;;;24.73;;
2872;SDS011;1444;49.166;7.312;2023-02-24T07:34:19;60.83;;;25.03;;
2872;SDS011;1444;49.166;7.312;2023-02-24T07:36:48;55.77;;;23.30;;
2872;SDS011;1444;49.166;7.312;2023-02-24T07:39:17;62.43;;;25.30;;
2872;SDS011;1444;49.166;7.312;2023-02-24T07:41:44;62.03;;;23.97;;
2872;SDS011;1444;49.166;7.312;2023-02-24T07:44:13;66.83;;;23.40;;
2872;SDS011;1444;49.166;7.312;2023-02-24T07:46:41;56.87;;;23.97;;
2872;SDS011;1444;49.166;7.312;2023-02-24T07:49:09;76.40;;;26.00;;
2872;SDS011;1444;49.166;7.312;2023-02-24T07:51:39;61.50;;;24.23;;
2872;SDS011;1444;49.166;7.312;2023-02-24T07:54:06;68.83;;;24.73;;
2872;SDS011;1444;49.166;7.312;2023-02-24T07:56:37;64.53;;;25.13;;
2872;SDS011;1444;49.166;7.312;2023-02-24T07:59:10;57.27;;;21.73;;
2872;SDS011;1444;49.166;7.312;2023-02-24T08:01:39;59.87;;;25.93;;
2872;SDS011;1444;49.166;7.312;2023-02-24T08:04:14;58.97;;;24.90;;
2872;SDS011;1444;49.166;7.312;2023-02-24T08:06:42;62.73;;;24.33;;
2872;SDS011;1444;49.166;7.312;2023-02-24T08:09:10;69.37;;;24.47;;
2872;SDS011;1444;49.166;7.312;2023-02-24T08:11:43;54.60;;;23.97;;
2872;SDS011;1444;49.166;7.312;2023-02-24T08:14:11;66.00;;;24.07;;
2872;SDS011;1444;49.166;7.312;2023-02-24T08:16:39;63.53;;;24.40;;
2872;SDS011;1444;49.166;7.312;2023-02-24T08:19:06;53.57;;;22.47;;
2872;SDS011;1444;49.166;7.312;2023-02-24T08:21:37;45.17;;;21.57;;
2872;SDS011;1444;49.166;7.312;2023-02-24T08:24:05;51.90;;;23.20;;
2872;SDS011;1444;49.166;7.312;2023-02-24T08:26:33;57.60;;;26.77;;
2872;SDS011;1444;49.166;7.312;2023-02-24T08:29:09;73.17;;;22.93;;
2872;SDS011;1444;49.166;7.312;2023-02-24T08:31:37;61.83;;;27.10;;
2872;SDS011;1444;49.166;7.312;2023-02-24T08:34:03;53.10;;;25.23;;
2872;SDS011;1444;49.166;7.312;2023-02-24T08:36:30;70.23;;;25.63;;
2872;SDS011;1444;49.166;7.312;2023-02-24T08:38:57;54.30;;;23.07;;
2872;SDS011;1444;49.166;7.312;2023-02-24T08:41:24;72.20;;;28.63;;
2872;SDS011;1444;49.166;7.312;2023-02-24T08:44:10;60.13;;;24.93;;
2872;SDS011;1444;49.166;7.312;2023-02-24T08:46:41;49.63;;;23.10;;
2872;SDS011;1444;49.166;7.312;2023-02-24T08:49:08;67.07;;;25.40;;
2872;SDS011;1444;49.166;7.312;2023-02-24T08:51:36;53.17;;;22.40;;
2872;SDS011;1444;49.166;7.312;2023-02-24T08:54:08;56.60;;;25.07;;
2872;SDS011;1444;49.166;7.312;2023-02-24T08:56:39;55.50;;;22.90;;
2872;SDS011;1444;49.166;7.312;2023-02-24T08:59:08;52.17;;;22.27;;
2872;SDS011;1444;49.166;7.312;2023-02-24T09:01:53;73.20;;;28.30;;
2872;SDS011;1444;49.166;7.312;2023-02-24T09:04:40;57.57;;;24.60;;
2872;SDS011;1444;49.166;7.312;2023-02-24T09:07:11;74.73;;;28.47;;
2872;SDS011;1444;49.166;7.312;2023-02-24T09:09:39;73.33;;;25.47;;
2872;SDS011;1444;49.166;7.312;2023-02-24T09:12:07;62.40;;;24.93;;
2872;SDS011;1444;49.166;7.312;2023-02-24T09:14:47;58.83;;;26.53;;
2872;SDS011;1444;49.166;7.312;2023-02-24T09:17:14;65.93;;;24.77;;
2872;SDS011;1444;49.166;7.312;2023-02-24T09:19:45;65.43;;;24.10;;
2872;SDS011;1444;49.166;7.312;2023-02-24T09:22:31;66.27;;;24.87;;
2872;SDS011;1444;49.166;7.312;2023-02-24T09:25:06;52.80;;;22.30;;
2872;SDS011;1444;49.166;7.312;2023-02-24T09:27:45;55.53;;;22.47;;
2872;SDS011;1444;49.166;7.312;2023-02-24T09:30:17;61.90;;;22.60;;
2872;SDS011;1444;49.166;7.312;2023-02-24T09:33:08;57.00;;;24.07;;
2872;SDS011;1444;49.166;7.312;2023-02-24T09:35:43;59.03;;;22.73;;
2872;SDS011;1444;49.166;7.312;2023-02-24T09:38:12;63.73;;;23.73;;
2872;SDS011;1444;49.166;7.312;2023-02-24T09:40:41;58.73;;;25.77;;
2872;SDS011;1444;49.166;7.312;2023-02-24T09:43:14;73.47;;;27.97;;
2872;SDS011;1444;49.166;7.312;2023-02-24T09:45:48;64.30;;;25.50;;
2872;SDS011;1444;49.166;7.312;2023-02-24T09:48:23;73.67;;;28.10;;
2872;SDS011;1444;49.166;7.312;2023-02-24T09:51:07;65.43;;;25.70;;
2872;SDS011;1444;49.166;7.312;2023-02-24T09:53:45;60.73;;;23.77;;
2872;SDS011;1444;49.166;7.312;2023-02-24T09:56:16;74.00;;;27.77;;
2872;SDS011;1444;49.166;7.312;2023-02-24T09:58:54;75.83;;;29.07;;
2872;SDS011;1444;49.166;7.312;2023-02-24T10:01:45;81.00;;;29.17;;
2872;SDS011;1444;49.166;7.312;2023-02-24T10:04:23;73.93;;;26.40;;
2872;SDS011;1444;49.166;7.312;2023-02-24T10:07:06;71.10;;;27.27;;
2872;SDS011;1444;49.166;7.312;2023-02-24T10:09:39;67.70;;;26.37;;
2872;SDS011;1444;49.166;7.312;2023-02-24T10:12:12;67.77;;;26.07;;
2872;SDS011;1444;49.166;7.312;2023-02-24T10:14:45;73.47;;;30.37;;
2872;SDS011;1444;49.166;7.312;2023-02-24T10:17:18;67.50;;;25.87;;
2872;SDS011;1444;49.166;7.312;2023-02-24T10:19:50;68.37;;;29.93;;
2872;SDS011;1444;49.166;7.312;2023-02-24T10:22:27;63.43;;;27.40;;
2872;SDS011;1444;49.166;7.312;2023-02-24T10:25:09;59.00;;;26.20;;
2872;SDS011;1444;49.166;7.312;2023-02-24T10:27:49;67.20;;;27.30;;
2872;SDS011;1444;49.166;7.312;2023-02-24T10:30:29;68.83;;;29.50;;
2872;SDS011;1444;49.166;7.312;2023-02-24T10:33:12;68.40;;;28.00;;
2872;SDS011;1444;49.166;7.312;2023-02-24T10:35:49;67.03;;;25.50;;
2872;SDS011;1444;49.166;7.312;2023-02-24T10:38:18;63.97;;;24.10;;
2872;SDS011;1444;49.166;7.312;2023-02-24T10:40:47;51.90;;;24.57;;
2872;SDS011;1444;49.166;7.312;2023-02-24T10:43:21;51.33;;;20.80;;
2872;SDS011;1444;49.166;7.312;2023-02-24T10:45:54;53.20;;;24.03;;
2872;SDS011;1444;49.166;7.312;2023-02-24T10:48:31;66.03;;;27.53;;
2872;SDS011;1444;49.166;7.312;2023-02-24T10:51:07;56.83;;;23.63;;
2872;SDS011;1444;49.166;7.312;2023-02-24T10:53:42;46.70;;;20.83;;
2872;SDS011;1444;49.166;7.312;2023-02-24T10:56:17;40.13;;;19.53;;
2872;SDS011;1444;49.166;7.312;2023-02-24T10:59:01;42.60;;;20.40;;
2872;SDS011;1444;49.166;7.312;2023-02-24T11:01:50;41.00;;;20.23;;
2872;SDS011;1444;49.166;7.312;2023-02-24T11:04:31;57.10;;;22.60;;
2872;SDS011;1444;49.166;7.312;2023-02-24T11:07:18;41.37;;;18.20;;
2872;SDS011;1444;49.166;7.312;2023-02-24T11:10:00;32.33;;;15.00;;
2872;SDS011;1444;49.166;7.312;2023-02-24T11:12:35;41.97;;;19.23;;
2872;SDS011;1444;49.166;7.312;2023-02-24T11:15:26;40.50;;;18.50;;
2872;SDS011;1444;49.166;7.312;2023-02-24T11:18:20;38.53;;;19.43;;
2872;SDS011;1444;49.166;7.312;2023-02-24T11:20:51;36.17;;;17.17;;
2872;SDS011;1444;49.166;7.312;2023-02-24T11:23:21;51.83;;;18.80;;
2872;SDS011;1444;49.166;7.312;2023-02-24T11:25:53;35.67;;;17.60;;
2872;SDS011;1444;49.166;7.312;2023-02-24T11:31:24;36.73;;;18.50;;
2872;SDS011;1444;49.166;7.312;2023-02-24T11:34:04;46.07;;;20.97;;
2872;SDS011;1444;49.166;7.312;2023-02-24T11:36:38;53.90;;;23.10;;
2872;SDS011;1444;49.166;7.312;2023-02-24T11:39:16;37.30;;;18.50;;
2872;SDS011;1444;49.166;7.312;2023-02-24T11:42:00;47.77;;;19.90;;
2872;SDS011;1444;49.166;7.312;2023-02-24T11:44:33;41.20;;;18.93;;
2872;SDS011;1444;49.166;7.312;2023-02-24T11:47:04;31.97;;;16.27;;
2872;SDS011;1444;49.166;7.312;2023-02-24T11:49:38;35.73;;;15.93;;
2872;SDS011;1444;49.166;7.312;2023-02-24T11:52:11;27.43;;;16.23;;
2872;SDS011;1444;49.166;7.312;2023-02-24T11:54:42;27.50;;;16.23;;
2872;SDS011;1444;49.166;7.312;2023-02-24T11:57:14;27.50;;;14.70;;
2872;SDS011;1444;49.166;7.312;2023-02-24T11:59:45;26.67;;;13.97;;
2872;SDS011;1444;49.166;7.312;2023-02-24T12:02:18;37.43;;;14.97;;
2872;SDS011;1444;49.166;7.312;2023-02-24T12:04:52;24.47;;;13.10;;
2872;SDS011;1444;49.166;7.312;2023-02-24T12:07:27;35.67;;;16.00;;
2872;SDS011;1444;49.166;7.312;2023-02-24T12:09:58;30.13;;;15.90;;
2872;SDS011;1444;49.166;7.312;2023-02-24T12:12:29;33.97;;;17.30;;
2872;SDS011;1444;49.166;7.312;2023-02-24T12:15:03;30.13;;;15.47;;
2872;SDS011;1444;49.166;7.312;2023-02-24T12:17:35;27.10;;;15.17;;
2872;SDS011;1444;49.166;7.312;2023-02-24T12:20:14;29.70;;;13.20;;
2872;SDS011;1444;49.166;7.312;2023-02-24T12:22:49;22.87;;;12.70;;
2872;SDS011;1444;49.166;7.312;2023-02-24T12:25:21;40.83;;;13.97;;
2872;SDS011;1444;49.166;7.312;2023-02-24T12:27:56;25.47;;;14.93;;
2872;SDS011;1444;49.166;7.312;2023-02-24T12:30:41;41.40;;;15.30;;
2872;SDS011;1444;49.166;7.312;2023-02-24T12:33:25;25.17;;;14.60;;
2872;SDS011;1444;49.166;7.312;2023-02-24T12:36:03;28.13;;;14.23;;
2872;SDS011;1444;49.166;7.312;2023-02-24T12:38:42;26.13;;;15.77;;
2872;SDS011;1444;49.166;7.312;2023-02-24T12:41:23;25.73;;;13.10;;
2872;SDS011;1444;49.166;7.312;2023-02-24T12:43:57;28.73;;;13.83;;
2872;SDS011;1444;49.166;7.312;2023-02-24T12:46:33;27.07;;;15.10;;
2872;SDS011;1444;49.166;7.312;2023-02-24T12:49:09;28.33;;;14.40;;
2872;SDS011;1444;49.166;7.312;2023-02-24T12:51:48;17.67;;;10.43;;
2872;SDS011;1444;49.166;7.312;2023-02-24T12:54:31;42.87;;;18.80;;
2872;SDS011;1444;49.166;7.312;2023-02-24T12:57:03;24.40;;;14.03;;
2872;SDS011;1444;49.166;7.312;2023-02-24T12:59:36;29.60;;;14.90;;
2872;SDS011;1444;49.166;7.312;2023-02-24T13:02:05;22.57;;;13.87;;
2872;SDS011;1444;49.166;7.312;2023-02-24T13:04:38;24.17;;;14.17;;
2872;SDS011;1444;49.166;7.312;2023-02-24T13:07:25;24.17;;;12.57;;
2872;SDS011;1444;49.166;7.312;2023-02-24T13:10:15;30.30;;;15.10;;
2872;SDS011;1444;49.166;7.312;2023-02-24T13:12:49;25.20;;;13.17;;
2872;SDS011;1444;49.166;7.312;2023-02-24T13:15:22;24.43;;;14.10;;
2872;SDS011;1444;49.166;7.312;2023-02-24T13:17:50;40.20;;;13.17;;
2872;SDS011;1444;49.166;7.312;2023-02-24T13:20:26;20.90;;;12.60;;
2872;SDS011;1444;49.166;7.312;2023-02-24T13:22:55;31.80;;;13.93;;
2872;SDS011;1444;49.166;7.312;2023-02-24T13:25:27;30.60;;;18.80;;
2872;SDS011;1444;49.166;7.312;2023-02-24T13:27:57;22.67;;;13.40;;
2872;SDS011;1444;49.166;7.312;2023-02-24T13:30:33;18.40;;;11.80;;
2872;SDS011;1444;49.166;7.312;2023-02-24T13:33:03;20.13;;;11.73;;
2872;SDS011;1444;49.166;7.312;2023-02-24T13:35:33;24.47;;;13.43;;
2872;SDS011;1444;49.166;7.312;2023-02-24T13:38:21;21.77;;;11.33;;
2872;SDS011;1444;49.166;7.312;2023-02-24T13:40:52;30.40;;;14.13;;
2872;SDS011;1444;49.166;7.312;2023-02-24T13:43:20;22.67;;;12.40;;
2872;SDS011;1444;49.166;7.312;2023-02-24T13:45:53;31.40;;;16.47;;
2872;SDS011;1444;49.166;7.312;2023-02-24T13:48:42;29.90;;;16.37;;
2872;SDS011;1444;49.166;7.312;2023-02-24T13:51:21;22.97;;;12.57;;
2872;SDS011;1444;49.166;7.312;2023-02-24T14:00:13;29.30;;;14.67;;
2872;SDS011;1444;49.166;7.312;2023-02-24T14:02:49;27.10;;;14.50;;
2872;SDS011;1444;49.166;7.312;2023-02-24T14:05:18;27.50;;;13.37;;
2872;SDS011;1444;49.166;7.312;2023-02-24T14:07:48;21.97;;;12.13;;
2872;SDS011;1444;49.166;7.312;2023-02-24T14:10:17;39.67;;;14.80;;
2872;SDS011;1444;49.166;7.312;2023-02-24T14:12:49;24.50;;;12.07;;
2872;SDS011;1444;49.166;7.312;2023-02-24T14:15:22;35.10;;;13.63;;
2872;SDS011;1444;49.166;7.312;2023-02-24T14:17:54;29.33;;;16.10;;
2872;SDS011;1444;49.166;7.312;2023-02-24T14:20:24;33.13;;;18.23;;
2872;SDS011;1444;49.166;7.312;2023-02-24T14:22:52;37.30;;;17.93;;
2872;SDS011;1444;49.166;7.312;2023-02-24T14:25:22;36.53;;;17.67;;
2872;SDS011;1444;49.166;7.312;2023-02-24T14:27:53;26.10;;;15.30;;
2872;SDS011;1444;49.166;7.312;2023-02-24T14:30:22;38.43;;;15.20;;
2872;SDS011;1444;49.166;7.312;2023-02-24T14:32:51;40.37;;;17.30;;
2872;SDS011;1444;49.166;7.312;2023-02-24T14:35:19;33.50;;;16.63;;
2872;SDS011;1444;49.166;7.312;2023-02-24T14:37:51;33.03;;;17.10;;
2872;SDS011;1444;49.166;7.312;2023-02-24T14:40:18;46.13;;;21.20;;
2872;SDS011;1444;49.166;7.312;2023-02-24T14:42:46;37.53;;;17.70;;
2872;SDS011;1444;49.166;7.312;2023-02-24T14:45:17;33.43;;;15.97;;
2872;SDS011;1444;49.166;7.312;2023-02-24T14:47:45;39.60;;;19.00;;
2872;SDS011;1444;49.166;7.312;2023-02-24T14:50:14;32.37;;;16.50;;
2872;SDS011;1444;49.166;7.312;2023-02-24T14:52:43;38.63;;;18.43;;
2872;SDS011;1444;49.166;7.312;2023-02-24T14:55:14;40.17;;;19.03;;
2872;SDS011;1444;49.166;7.312;2023-02-24T14:57:46;44.37;;;19.00;;
2872;SDS011;1444;49.166;7.312;2023-02-24T15:00:19;40.77;;;18.87;;
2872;SDS011;1444;49.166;7.312;2023-02-24T15:02:49;54.70;;;19.30;;
2872;SDS011;1444;49.166;7.312;2023-02-24T15:05:21;42.37;;;22.87;;
2872;SDS011;1444;49.166;7.312;2023-02-24T15:07:48;38.53;;;18.60;;
2872;SDS011;1444;49.166;7.312;2023-02-24T15:10:19;40.93;;;17.47;;
2872;SDS011;1444;49.166;7.312;2023-02-24T15:12:48;51.60;;;21.77;;
2872;SDS011;1444;49.166;7.312;2023-02-24T15:15:23;45.50;;;24.50;;
2872;SDS011;1444;49.166;7.312;2023-02-24T15:17:52;29.63;;;16.03;;
2872;SDS011;1444;49.166;7.312;2023-02-24T15:20:25;42.70;;;20.03;;
2872;SDS011;1444;49.166;7.312;2023-02-24T15:22:53;40.07;;;17.03;;
2872;SDS011;1444;49.166;7.312;2023-02-24T15:25:21;33.07;;;16.60;;
2872;SDS011;1444;49.166;7.312;2023-02-24T15:27:53;35.13;;;19.03;;
2872;SDS011;1444;49.166;7.312;2023-02-24T15:30:27;38.47;;;17.27;;
2872;SDS011;1444;49.166;7.312;2023-02-24T15:33:04;29.23;;;16.23;;